createdAt,value
2022-08-05T00:00:00.440Z,24.27
2022-08-05T00:02:28.749Z,24.33
2022-08-05T00:04:56.867Z,24.36
2022-08-05T00:07:58.941Z,24.27
2022-08-05T00:10:11.885Z,24.20
2022-08-05T00:12:56.072Z,23.96
2022-08-05T00:15:55.149Z,24.22
2022-08-05T00:18:21.353Z,23.68
2022-08-05T00:20:50.429Z,23.60
2022-08-05T00:23:44.374Z,22.93
2022-08-05T00:26:05.794Z,22.87
2022-08-05T00:28:33.003Z,22.74
2022-08-05T00:31:04.212Z,22.68
2022-08-05T00:34:56.128Z,22.52
2022-08-05T00:37:11.598Z,22.52
2022-08-05T00:39:13.383Z,22.40
2022-08-05T00:41:52.028Z,22.24
2022-08-05T00:44:30.988Z,22.21
2022-08-05T00:47:04.271Z,22.15
2022-08-05T00:49:33.116Z,22.03
2022-08-05T00:52:28.365Z,21.99
2022-08-05T00:54:56.248Z,22.33
2022-08-05T00:57:25.422Z,22.19
2022-08-05T01:00:07.218Z,22.02
2022-08-05T01:02:38.308Z,21.94
2022-08-05T01:05:10.157Z,22.00
2022-08-05T01:07:37.377Z,22.02
2022-08-05T01:10:30.690Z,21.98
2022-08-05T01:13:12.780Z,22.12
2022-08-05T01:15:47.927Z,22.07
2022-08-05T01:18:23.626Z,22.12
2022-08-05T01:21:38.058Z,22.00
2022-08-05T01:24:14.324Z,21.96
2022-08-05T01:26:56.732Z,21.94
2022-08-05T01:29:36.460Z,22.06
2022-08-05T01:32:12.373Z,22.03
2022-08-05T01:34:52.918Z,21.97
2022-08-05T01:37:29.650Z,22.03
2022-08-05T01:40:02.346Z,22.06
2022-08-05T01:42:31.457Z,21.93
2022-08-05T01:45:02.221Z,21.89
2022-08-05T01:47:39.589Z,21.90
2022-08-05T01:50:15.568Z,21.93
2022-08-05T01:52:45.499Z,21.86
2022-08-05T01:55:20.890Z,21.80
2022-08-05T01:58:29.640Z,21.79
2022-08-05T02:00:39.556Z,21.78
2022-08-05T02:03:29.011Z,21.76
2022-08-05T02:06:03.554Z,21.73
2022-08-05T02:08:58.351Z,21.71
2022-08-05T02:11:33.995Z,21.66
2022-08-05T02:14:12.687Z,21.63
2022-08-05T02:16:54.631Z,21.51
2022-08-05T02:19:34.408Z,21.68
2022-08-05T02:22:26.742Z,21.52
2022-08-05T02:25:02.088Z,21.48
2022-08-05T02:27:58.566Z,21.42
2022-08-05T02:30:22.302Z,21.40
2022-08-05T02:32:52.514Z,21.32
2022-08-05T02:35:27.769Z,21.49
2022-08-05T02:38:00.332Z,21.34
2022-08-05T02:40:31.365Z,21.24
2022-08-05T02:43:00.092Z,21.15
2022-08-05T02:45:28.969Z,21.21
2022-08-05T02:48:17.463Z,21.31
2022-08-05T02:50:47.375Z,21.23
2022-08-05T02:53:19.450Z,21.28
2022-08-05T02:55:54.814Z,21.20
2022-08-05T02:58:28.869Z,21.32
2022-08-05T03:01:02.027Z,21.14
2022-08-05T03:03:33.929Z,21.27
2022-08-05T03:06:55.672Z,21.22
2022-08-05T03:09:07.794Z,21.07
2022-08-05T03:11:55.218Z,21.27
2022-08-05T03:14:21.964Z,21.24
2022-08-05T03:16:49.503Z,21.24
2022-08-05T03:19:33.511Z,21.25
2022-08-05T03:22:05.087Z,21.17
2022-08-05T03:24:46.923Z,21.30
2022-08-05T03:27:14.647Z,21.29
2022-08-05T03:29:44.577Z,21.21
2022-08-05T03:32:30.951Z,21.31
2022-08-05T03:34:59.542Z,21.54
2022-08-05T03:37:27.969Z,21.08
2022-08-05T03:39:58.618Z,21.40
2022-08-05T03:42:29.131Z,21.32
2022-08-05T03:44:59.074Z,21.51
2022-08-05T03:47:30.507Z,21.53
2022-08-05T03:50:02.504Z,21.52
2022-08-05T03:52:39.200Z,21.58
2022-08-05T03:56:05.756Z,21.53
2022-08-05T03:58:17.898Z,21.50
2022-08-05T04:00:51.314Z,21.53
2022-08-05T04:03:28.463Z,21.52
2022-08-05T04:05:58.034Z,21.37
2022-08-05T04:08:34.819Z,21.47
2022-08-05T04:11:07.403Z,21.52
2022-08-05T04:13:49.825Z,21.32
2022-08-05T04:16:25.508Z,21.65
2022-08-05T04:19:00.112Z,21.38
2022-08-05T04:22:08.614Z,21.34
2022-08-05T04:24:19.366Z,21.33
2022-08-05T04:26:50.216Z,21.38
2022-08-05T04:29:17.302Z,21.42
2022-08-05T04:31:44.341Z,21.30
2022-08-05T04:34:31.643Z,21.16
2022-08-05T04:37:00.707Z,21.29
2022-08-05T04:39:28.014Z,21.32
2022-08-05T04:41:55.530Z,21.28
2022-08-05T04:44:29.478Z,21.26
2022-08-05T04:46:59.208Z,21.24
2022-08-05T04:49:39.134Z,21.01
2022-08-05T04:52:15.258Z,21.20
2022-08-05T04:54:42.474Z,21.23
2022-08-05T04:57:09.566Z,21.31
2022-08-05T04:59:38.767Z,21.18
2022-08-05T05:02:37.020Z,21.41
2022-08-05T05:05:02.125Z,21.41
2022-08-05T05:07:32.261Z,21.28
2022-08-05T05:10:04.185Z,21.23
2022-08-05T05:12:31.466Z,21.45
2022-08-05T05:14:58.536Z,21.47
2022-08-05T05:17:57.019Z,21.41
2022-08-05T05:20:13.782Z,21.28
2022-08-05T05:22:44.111Z,21.29
2022-08-05T05:25:16.342Z,21.32
2022-08-05T05:27:48.530Z,21.36
2022-08-05T05:30:30.942Z,21.38
2022-08-05T05:33:08.823Z,21.43
2022-08-05T05:35:45.096Z,21.37
2022-08-05T05:38:13.487Z,21.48
2022-08-05T05:40:49.599Z,21.58
2022-08-05T05:43:54.267Z,21.57
2022-08-05T05:46:16.130Z,21.47
2022-08-05T05:48:48.323Z,21.52
2022-08-05T05:51:23.698Z,21.63
2022-08-05T05:53:57.672Z,21.52
2022-08-05T05:56:31.704Z,21.66
2022-08-05T05:59:06.453Z,21.82
2022-08-05T06:01:38.026Z,21.89
2022-08-05T06:04:07.753Z,21.89
2022-08-05T06:06:36.115Z,22.07
2022-08-05T06:09:07.746Z,21.97
2022-08-05T06:11:35.573Z,22.33
2022-08-05T06:14:06.585Z,22.16
2022-08-05T06:16:37.335Z,22.16
2022-08-05T06:19:07.484Z,22.06
2022-08-05T06:21:38.351Z,22.04
2022-08-05T06:24:11.800Z,21.83
2022-08-05T06:26:52.385Z,21.94
2022-08-05T06:29:21.167Z,22.04
2022-08-05T06:31:53.790Z,22.34
2022-08-05T06:34:20.948Z,22.27
2022-08-05T06:36:57.087Z,22.32
2022-08-05T06:39:27.155Z,22.59
2022-08-05T06:42:01.198Z,22.55
2022-08-05T06:44:30.115Z,22.76
2022-08-05T06:46:58.113Z,23.00
2022-08-05T06:50:01.664Z,22.81
2022-08-05T06:52:36.718Z,22.86
2022-08-05T06:55:03.934Z,22.84
2022-08-05T06:58:03.185Z,22.82
2022-08-05T07:00:22.100Z,22.81
2022-08-05T07:02:53.813Z,22.94
2022-08-05T07:05:23.456Z,22.76
2022-08-05T07:08:03.907Z,23.09
2022-08-05T07:10:33.914Z,23.25
2022-08-05T07:13:57.161Z,23.09
2022-08-05T07:17:56.381Z,22.77
2022-08-05T07:19:12.681Z,22.78
2022-08-05T07:21:59.985Z,22.65
2022-08-05T07:24:28.744Z,22.42
2022-08-05T07:26:57.095Z,22.78
2022-08-05T07:29:25.451Z,22.76
2022-08-05T07:32:12.311Z,22.61
2022-08-05T07:34:42.422Z,22.41
2022-08-05T07:37:11.654Z,22.32
2022-08-05T07:40:04.419Z,22.14
2022-08-05T07:42:31.761Z,22.30
2022-08-05T07:45:01.273Z,22.62
2022-08-05T07:47:30.416Z,22.25
2022-08-05T07:50:09.942Z,22.58
2022-08-05T07:52:42.011Z,22.99
2022-08-05T07:55:43.925Z,23.06
2022-08-05T07:58:03.041Z,23.02
2022-08-05T08:00:30.548Z,23.09
2022-08-05T08:03:15.389Z,23.18
2022-08-05T08:05:49.431Z,23.08
2022-08-05T08:08:20.071Z,23.31
2022-08-05T08:10:48.840Z,23.09
2022-08-05T08:13:21.913Z,23.05
2022-08-05T08:16:35.424Z,22.76
2022-08-05T08:18:43.354Z,22.98
2022-08-05T08:21:17.823Z,23.09
2022-08-05T08:24:02.840Z,23.22
2022-08-05T08:26:32.313Z,23.29
2022-08-05T08:29:21.796Z,23.36
2022-08-05T08:31:47.575Z,22.98
2022-08-05T08:34:30.637Z,22.98
2022-08-05T08:37:04.737Z,23.01
2022-08-05T08:39:32.842Z,23.01
2022-08-05T08:42:10.373Z,22.85
2022-08-05T08:45:18.291Z,22.85
2022-08-05T08:48:05.880Z,22.60
2022-08-05T08:51:03.455Z,22.92
2022-08-05T08:53:21.779Z,22.71
2022-08-05T08:56:05.297Z,23.07
2022-08-05T08:58:37.547Z,23.32
2022-08-05T09:01:15.580Z,23.44
2022-08-05T09:03:57.384Z,23.40
2022-08-05T09:06:29.249Z,23.35
2022-08-05T09:09:01.958Z,23.28
2022-08-05T09:11:52.845Z,23.38
2022-08-05T09:14:57.860Z,23.09
2022-08-05T09:17:09.809Z,22.94
2022-08-05T09:20:02.326Z,22.96
2022-08-05T09:23:19.778Z,22.80
2022-08-05T09:26:06.157Z,22.52
2022-08-05T09:28:37.705Z,22.47
2022-08-05T09:32:39.401Z,22.28
2022-08-05T09:33:58.674Z,22.23
2022-08-05T09:36:45.642Z,22.61
2022-08-05T09:39:24.520Z,22.91
2022-08-05T09:42:13.439Z,23.00
2022-08-05T09:44:49.303Z,22.77
2022-08-05T09:47:28.641Z,22.36
2022-08-05T09:50:13.692Z,22.20
2022-08-05T09:52:47.121Z,22.43
2022-08-05T09:55:58.678Z,22.53
2022-08-05T09:58:11.260Z,23.35
2022-08-05T10:00:39.216Z,23.68
2022-08-05T10:03:11.314Z,23.79
2022-08-05T10:05:38.775Z,23.88
2022-08-05T10:08:36.917Z,24.05
2022-08-05T10:10:54.675Z,24.29
2022-08-05T10:16:37.681Z,23.55
2022-08-05T10:19:08.561Z,23.30
2022-08-05T10:21:40.788Z,23.14
2022-08-05T10:24:11.089Z,23.13
2022-08-05T10:26:52.021Z,23.24
2022-08-05T10:30:05.808Z,23.04
2022-08-05T10:32:54.430Z,23.55
2022-08-05T10:35:01.089Z,23.84
2022-08-05T10:37:39.997Z,24.33
2022-08-05T10:40:46.988Z,24.29
2022-08-05T10:43:41.234Z,23.92
2022-08-05T10:46:11.773Z,23.96
2022-08-05T10:48:56.680Z,24.41
2022-08-05T10:51:28.926Z,24.41
2022-08-05T10:54:00.932Z,24.42
2022-08-05T10:56:45.118Z,24.78
2022-08-05T11:00:04.149Z,24.85
2022-08-05T11:02:14.788Z,25.11
2022-08-05T11:05:04.821Z,25.03
2022-08-05T11:07:32.920Z,24.87
2022-08-05T11:10:27.203Z,24.38
2022-08-05T11:12:56.377Z,24.14
2022-08-05T11:16:00.236Z,24.23
2022-08-05T11:18:32.240Z,23.81
2022-08-05T11:21:00.138Z,24.10
2022-08-05T11:23:49.877Z,24.24
2022-08-05T11:26:28.343Z,23.94
2022-08-05T11:29:05.171Z,23.94
2022-08-05T11:31:56.486Z,23.86
2022-08-05T11:34:38.247Z,23.67
2022-08-05T11:38:14.307Z,23.64
2022-08-05T11:40:00.836Z,23.56
2022-08-05T11:42:40.574Z,23.00
2022-08-05T11:45:14.505Z,22.91
2022-08-05T11:47:54.433Z,22.65
2022-08-05T11:50:22.725Z,22.32
2022-08-05T11:52:53.152Z,21.88
2022-08-05T11:55:31.706Z,21.83
2022-08-05T11:58:10.760Z,22.00
2022-08-05T12:00:41.121Z,21.64
2022-08-05T12:03:28.467Z,21.48
2022-08-05T12:06:06.652Z,20.61
2022-08-05T12:08:54.287Z,20.50
2022-08-05T12:11:28.267Z,20.97
2022-08-05T12:14:10.953Z,20.51
2022-08-05T12:16:40.704Z,20.72
2022-08-05T12:20:17.273Z,20.68
2022-08-05T12:22:01.539Z,20.74
2022-08-05T12:24:28.647Z,20.29
2022-08-05T12:26:57.254Z,20.37
2022-08-05T12:29:27.718Z,20.25
2022-08-05T12:32:02.065Z,19.86
2022-08-05T12:34:37.015Z,19.96
2022-08-05T12:37:21.641Z,19.92
2022-08-05T12:39:51.725Z,20.07
2022-08-05T12:42:20.851Z,20.13
2022-08-05T12:44:48.610Z,20.15
2022-08-05T12:47:30.680Z,20.19
2022-08-05T12:50:03.201Z,20.50
2022-08-05T12:52:39.742Z,20.66
2022-08-05T12:55:22.402Z,20.78
2022-08-05T12:58:52.683Z,21.47
2022-08-05T13:02:04.443Z,21.69
2022-08-05T13:03:41.447Z,21.94
2022-08-05T13:06:17.342Z,21.67
2022-08-05T13:08:52.300Z,21.83
2022-08-05T13:12:02.101Z,21.71
2022-08-05T13:14:25.030Z,21.75
2022-08-05T13:17:20.483Z,21.75
2022-08-05T13:20:05.442Z,21.66
2022-08-05T13:22:35.114Z,21.16
2022-08-05T13:25:08.114Z,21.40
2022-08-05T13:27:53.296Z,21.64
2022-08-05T13:30:34.188Z,21.68
2022-08-05T13:33:03.465Z,21.92
2022-08-05T13:35:47.691Z,21.75
2022-08-05T13:38:28.130Z,21.69
2022-08-05T13:41:01.314Z,21.32
2022-08-05T13:43:43.486Z,21.13
2022-08-05T13:46:14.208Z,21.52
2022-08-05T13:48:58.128Z,21.61
2022-08-05T13:51:36.410Z,21.99
2022-08-05T13:54:12.859Z,22.03
2022-08-05T13:56:44.884Z,22.31
2022-08-05T13:59:24.070Z,22.50
2022-08-05T14:02:00.334Z,22.76
2022-08-05T14:04:49.844Z,22.92
2022-08-05T14:07:56.290Z,22.85
2022-08-05T14:10:18.908Z,23.20
2022-08-05T14:12:48.930Z,23.04
2022-08-05T14:16:06.193Z,23.27
2022-08-05T14:18:04.911Z,23.39
2022-08-05T14:20:31.997Z,23.45
2022-08-05T14:22:59.763Z,23.25
2022-08-05T14:25:30.085Z,23.02
2022-08-05T14:27:58.325Z,22.42
2022-08-05T14:30:26.701Z,22.69
2022-08-05T14:32:56.785Z,22.67
2022-08-05T14:35:37.050Z,22.66
2022-08-05T14:38:04.661Z,23.04
2022-08-05T14:40:31.796Z,23.27
2022-08-05T14:43:01.266Z,23.48
2022-08-05T14:45:28.299Z,23.54
2022-08-05T14:48:03.857Z,23.01
2022-08-05T14:50:36.068Z,22.97
2022-08-05T14:53:08.026Z,22.97
2022-08-05T14:55:39.220Z,22.69
2022-08-05T14:58:11.407Z,22.65
2022-08-05T15:00:59.431Z,22.44
2022-08-05T15:03:33.241Z,22.57
2022-08-05T15:06:06.819Z,23.03
2022-08-05T15:09:01.145Z,23.38
2022-08-05T15:11:52.027Z,23.64
2022-08-05T15:14:33.562Z,24.19
2022-08-05T15:17:04.299Z,24.48
2022-08-05T15:19:32.249Z,24.44
2022-08-05T15:22:01.197Z,23.39
2022-08-05T15:24:29.521Z,23.71
2022-08-05T15:26:57.014Z,24.24
2022-08-05T15:29:29.816Z,24.07
2022-08-05T15:32:02.966Z,24.68
2022-08-05T15:34:32.105Z,24.39
2022-08-05T15:37:06.469Z,24.88
2022-08-05T15:40:59.657Z,25.16
2022-08-05T15:42:54.223Z,25.40
2022-08-05T15:45:16.662Z,24.86
2022-08-05T15:47:46.295Z,24.44
2022-08-05T15:50:15.426Z,24.41
2022-08-05T15:52:53.371Z,24.82
2022-08-05T15:55:24.626Z,24.73
2022-08-05T15:58:08.641Z,24.73
2022-08-05T16:00:50.486Z,24.69
2022-08-05T16:03:22.731Z,24.63
2022-08-05T16:05:52.708Z,24.93
2022-08-05T16:08:19.875Z,24.75
2022-08-05T16:10:47.509Z,24.37
2022-08-05T16:13:23.547Z,24.02
2022-08-05T16:15:51.858Z,24.19
2022-08-05T16:18:19.032Z,23.35
2022-08-05T16:20:46.682Z,23.76
2022-08-05T16:23:13.767Z,24.27
2022-08-05T16:25:42.518Z,24.64
2022-08-05T16:28:13.510Z,24.54
2022-08-05T16:30:42.706Z,25.28
2022-08-05T16:33:11.811Z,24.87
2022-08-05T16:35:44.627Z,25.37
2022-08-05T16:38:18.448Z,25.71
2022-08-05T16:41:00.180Z,26.16
2022-08-05T16:43:31.232Z,25.92
2022-08-05T16:46:05.190Z,24.92
2022-08-05T16:48:37.401Z,23.58
2022-08-05T16:51:09.719Z,23.79
2022-08-05T16:54:03.383Z,24.06
2022-08-05T16:56:29.351Z,24.03
2022-08-05T16:58:57.920Z,23.37
2022-08-05T17:01:25.147Z,22.69
2022-08-05T17:03:52.299Z,22.33
2022-08-05T17:06:20.950Z,22.12
2022-08-05T17:08:54.186Z,21.57
2022-08-05T17:11:25.460Z,21.93
2022-08-05T17:14:00.162Z,21.72
2022-08-05T17:16:35.841Z,21.96
2022-08-05T17:19:07.785Z,22.00
2022-08-05T17:21:37.549Z,21.73
2022-08-05T17:24:19.508Z,21.84
2022-08-05T17:26:57.318Z,21.45
2022-08-05T17:29:33.098Z,21.79
2022-08-05T17:32:17.078Z,21.11
2022-08-05T17:34:47.805Z,20.94
2022-08-05T17:37:40.020Z,21.27
2022-08-05T17:40:10.820Z,21.05
2022-08-05T17:42:42.854Z,20.87
2022-08-05T17:45:20.910Z,20.81
2022-08-05T17:47:54.483Z,21.13
2022-08-05T17:50:28.130Z,21.30
2022-08-05T17:53:02.949Z,21.28
2022-08-05T17:55:37.569Z,21.27
2022-08-05T17:58:09.586Z,21.39
2022-08-05T18:00:44.567Z,21.04
2022-08-05T18:03:33.237Z,21.23
2022-08-05T18:06:05.921Z,21.12
2022-08-05T18:08:38.698Z,21.10
2022-08-05T18:11:11.405Z,21.07
2022-08-05T18:13:52.163Z,21.02
2022-08-05T18:16:20.606Z,20.66
2022-08-05T18:18:50.137Z,20.72
2022-08-05T18:21:20.029Z,20.78
2022-08-05T18:23:53.903Z,20.52
2022-08-05T18:26:27.658Z,20.78
2022-08-05T18:28:57.660Z,20.85
2022-08-05T18:31:24.988Z,20.67
2022-08-05T18:33:53.719Z,20.52
2022-08-05T18:36:28.021Z,20.54
2022-08-05T18:38:55.870Z,20.52
2022-08-05T18:41:55.881Z,20.71
2022-08-05T18:44:10.832Z,20.50
2022-08-05T18:46:41.088Z,20.61
2022-08-05T18:49:30.458Z,20.50
2022-08-05T18:52:33.241Z,20.35
2022-08-05T18:55:02.217Z,20.56
2022-08-05T18:57:43.290Z,20.52
2022-08-05T19:00:20.512Z,20.38
2022-08-05T19:02:48.182Z,20.24
2022-08-05T19:06:13.455Z,19.92
2022-08-05T19:08:06.931Z,20.00
2022-08-05T19:10:41.095Z,20.19
2022-08-05T19:13:12.417Z,19.73
2022-08-05T19:15:57.870Z,19.92
2022-08-05T19:18:28.705Z,19.53
2022-08-05T19:20:56.126Z,19.77
2022-08-05T19:24:06.150Z,19.71
2022-08-05T19:26:11.167Z,19.64
2022-08-05T19:28:43.330Z,19.48
2022-08-05T19:31:13.262Z,19.46
2022-08-05T19:33:48.609Z,19.36
2022-08-05T19:36:25.857Z,19.22
2022-08-05T19:39:00.512Z,19.26
2022-08-05T19:42:05.852Z,18.91
2022-08-05T19:44:15.348Z,19.16
2022-08-05T19:46:43.678Z,19.14
2022-08-05T19:49:12.426Z,19.02
2022-08-05T19:52:19.689Z,18.86
2022-08-05T19:54:34.612Z,19.05
2022-08-05T19:57:06.889Z,18.69
2022-08-05T20:00:00.265Z,18.79
2022-08-05T20:02:27.698Z,18.79
2022-08-05T20:04:58.720Z,18.49
2022-08-05T20:07:47.899Z,18.77
2022-08-05T20:10:19.202Z,18.71
2022-08-05T20:12:49.503Z,18.68
2022-08-05T20:15:48.851Z,18.69
2022-08-05T20:18:10.061Z,18.59
2022-08-05T20:20:56.718Z,18.50
2022-08-05T20:23:40.102Z,18.52
2022-08-05T20:26:16.203Z,18.49
2022-08-05T20:28:50.514Z,18.49
2022-08-05T20:31:22.810Z,18.15
2022-08-05T20:33:56.179Z,18.08
2022-08-05T20:36:24.221Z,17.91
2022-08-05T20:38:53.510Z,18.11
2022-08-05T20:41:24.225Z,17.78
2022-08-05T20:43:59.193Z,17.72
2022-08-05T20:46:30.055Z,17.52
2022-08-05T20:48:57.247Z,17.40
2022-08-05T20:51:24.305Z,17.16
2022-08-05T20:53:56.389Z,17.07
2022-08-05T20:56:31.842Z,17.02
2022-08-05T20:59:13.990Z,16.96
2022-08-05T21:01:46.398Z,16.68
2022-08-05T21:04:14.156Z,16.71
2022-08-05T21:06:45.797Z,16.76
2022-08-05T21:09:14.546Z,16.64
2022-08-05T21:12:06.782Z,16.66
2022-08-05T21:14:31.466Z,16.43
2022-08-05T21:17:04.974Z,16.44
2022-08-05T21:19:46.955Z,16.29
2022-08-05T21:22:23.091Z,16.42
2022-08-05T21:24:54.158Z,16.35
2022-08-05T21:27:25.089Z,16.37
2022-08-05T21:29:55.650Z,16.35
2022-08-05T21:32:27.063Z,16.26
2022-08-05T21:35:18.069Z,15.99
2022-08-05T21:37:53.076Z,16.06
2022-08-05T21:40:22.543Z,15.94
2022-08-05T21:42:52.668Z,15.86
2022-08-05T21:45:24.633Z,15.69
2022-08-05T21:47:57.163Z,15.71
2022-08-05T21:50:26.307Z,15.42
2022-08-05T21:52:53.770Z,15.42
2022-08-05T21:56:00.753Z,15.50
2022-08-05T21:58:13.242Z,15.42
2022-08-05T22:00:40.477Z,15.60
2022-08-05T22:03:09.833Z,15.42
2022-08-05T22:05:49.048Z,15.41
2022-08-05T22:08:22.110Z,15.33
2022-08-05T22:10:51.641Z,15.32
2022-08-05T22:14:31.559Z,15.33
2022-08-05T22:16:26.045Z,15.07
2022-08-05T22:18:54.595Z,15.07
2022-08-05T22:21:25.905Z,15.09
2022-08-05T22:24:13.257Z,14.97
2022-08-05T22:27:17.751Z,14.89
2022-08-05T22:29:44.892Z,14.86
2022-08-05T22:32:17.548Z,14.69
2022-08-05T22:34:50.141Z,14.45
2022-08-05T22:37:17.167Z,14.55
2022-08-05T22:39:45.492Z,14.48
2022-08-05T22:42:25.374Z,14.56
2022-08-05T22:44:56.421Z,14.63
2022-08-05T22:47:29.133Z,14.59
2022-08-05T22:50:20.933Z,14.16
2022-08-05T22:52:52.521Z,14.59
2022-08-05T22:55:21.303Z,14.53
2022-08-05T22:57:50.445Z,14.48
2022-08-05T23:00:20.922Z,14.40
2022-08-05T23:02:50.315Z,14.20
2022-08-05T23:05:17.815Z,14.15
2022-08-05T23:07:48.516Z,14.22
2022-08-05T23:10:19.881Z,14.25
2022-08-05T23:12:55.217Z,14.21
2022-08-05T23:15:29.997Z,14.01
2022-08-05T23:18:11.500Z,14.06
2022-08-05T23:20:39.063Z,13.69
2022-08-05T23:23:08.677Z,13.88
2022-08-05T23:25:51.409Z,13.69
2022-08-05T23:28:22.917Z,13.83
2022-08-05T23:30:53.568Z,13.85
2022-08-05T23:34:02.903Z,13.89
2022-08-05T23:36:10.289Z,13.66
2022-08-05T23:38:38.279Z,13.54
2022-08-05T23:41:05.480Z,13.53
2022-08-05T23:43:37.298Z,13.44
2022-08-05T23:46:22.064Z,13.43
2022-08-05T23:49:00.840Z,13.40
2022-08-05T23:51:53.587Z,13.28
2022-08-05T23:54:25.764Z,13.27
2022-08-05T23:57:04.012Z,13.25
